Time;durP1;ratioP1;P1;durP2;ratioP2;P2;SDS_P1;SDS_P2;PMS_P1;PMS_P2;Temp;Humidity;BMP_temperature;BMP_pressure;BME280_temperature;BME280_humidity;BME280_pressure;Samples;Min_cycle;Max_cycle;Signal;HPM_P1;HPM_P2
2022/10/28 00:01:20;;;;;;;5.50;3.53;;;14.90;99.90;;;;;;4967533;28;20031;-81
2022/10/28 00:03:48;;;;;;;5.35;3.20;;;14.80;99.90;;;;;;4947181;28;20073;-80
2022/10/28 00:06:27;;;;;;;6.85;3.38;;;14.80;99.90;;;;;;4997092;28;20102;-79
2022/10/28 00:08:53;;;;;;;5.70;3.33;;;14.80;99.90;;;;;;4978968;28;20019;-80
2022/10/28 00:11:22;;;;;;;8.07;3.78;;;14.80;99.90;;;;;;4979221;28;20459;-80
2022/10/28 00:13:49;;;;;;;5.40;3.42;;;14.70;99.90;;;;;;4986020;28;20434;-81
2022/10/28 00:16:24;;;;;;;5.88;3.20;;;14.70;99.90;;;;;;4983297;28;20045;-80
2022/10/28 00:18:52;;;;;;;5.63;3.35;;;14.60;99.90;;;;;;4978563;28;20037;-80
2022/10/28 00:21:21;;;;;;;5.95;3.60;;;14.60;99.90;;;;;;4968388;28;20027;-80
2022/10/28 00:23:47;;;;;;;5.93;3.95;;;14.60;99.90;;;;;;4961165;28;20488;-80
2022/10/28 00:26:23;;;;;;;5.97;3.83;;;14.60;99.90;;;;;;4972788;28;20018;-80
2022/10/28 00:29:20;;;;;;;7.10;3.60;;;14.60;99.90;;;;;;4992259;28;20060;-81
2022/10/28 00:31:51;;;;;;;6.80;4.07;;;14.50;99.90;;;;;;4960548;28;20065;-81
2022/10/28 00:34:21;;;;;;;7.05;3.80;;;14.50;99.90;;;;;;4974375;28;20155;-80
2022/10/28 00:36:47;;;;;;;8.27;4.03;;;14.50;99.90;;;;;;4950538;28;20033;-80
2022/10/28 00:39:17;;;;;;;7.10;3.80;;;14.50;99.90;;;;;;4979193;28;20387;-80
2022/10/28 00:41:49;;;;;;;6.28;3.90;;;14.50;99.90;;;;;;4939876;29;20031;-80
2022/10/28 00:44:45;;;;;;;7.70;4.18;;;14.50;99.90;;;;;;4954752;28;20034;-81
2022/10/28 00:47:36;;;;;;;7.13;3.95;;;14.50;99.90;;;;;;4953512;28;20023;-81
2022/10/28 00:50:18;;;;;;;6.18;3.67;;;14.40;99.90;;;;;;4959831;28;20033;-81
2022/10/28 00:52:48;;;;;;;5.53;3.70;;;14.40;99.90;;;;;;4978696;28;20035;-81
2022/10/28 00:55:17;;;;;;;9.10;3.65;;;14.40;99.90;;;;;;4978533;28;20111;-81
2022/10/28 00:57:44;;;;;;;6.10;3.45;;;14.40;99.90;;;;;;4986252;28;20027;-80
2022/10/28 01:00:10;;;;;;;4.40;3.42;;;14.40;99.90;;;;;;4999606;28;20011;-81
2022/10/28 01:02:46;;;;;;;5.22;3.75;;;14.40;99.90;;;;;;4969917;28;20142;-81
2022/10/28 01:05:15;;;;;;;5.20;3.78;;;14.30;99.90;;;;;;4978928;28;20034;-81
2022/10/28 01:07:43;;;;;;;7.55;3.47;;;14.30;99.90;;;;;;4976160;28;20082;-81
2022/10/28 01:10:21;;;;;;;6.45;3.85;;;14.30;99.90;;;;;;4963226;28;20030;-81
2022/10/28 01:12:55;;;;;;;6.57;4.30;;;14.30;99.90;;;;;;4979605;28;20367;-81
2022/10/28 01:15:55;;;;;;;5.90;4.15;;;14.20;99.90;;;;;;4996259;28;20478;-81
2022/10/28 01:18:55;;;;;;;7.55;4.22;;;14.20;99.90;;;;;;4963858;28;20038;-81
2022/10/28 01:21:41;;;;;;;6.55;3.95;;;14.20;99.90;;;;;;4959236;28;20493;-81
2022/10/28 01:24:23;;;;;;;6.13;3.78;;;14.20;99.90;;;;;;4976856;28;20058;-81
2022/10/28 01:26:56;;;;;;;6.65;4.05;;;14.10;99.90;;;;;;4961918;28;20018;-81
2022/10/28 01:29:37;;;;;;;5.93;3.35;;;14.10;99.90;;;;;;4975542;28;20474;-81
2022/10/28 01:32:43;;;;;;;7.28;4.53;;;14.10;99.90;;;;;;4987555;28;20030;-81
2022/10/28 01:35:18;;;;;;;5.25;3.55;;;14.10;99.90;;;;;;4931166;28;20445;-80
2022/10/28 01:38:04;;;;;;;10.02;4.40;;;14.10;99.90;;;;;;4977805;28;20030;-81
2022/10/28 01:40:51;;;;;;;8.52;4.30;;;14.10;99.90;;;;;;4960924;28;20034;-80
2022/10/28 01:43:23;;;;;;;6.05;4.22;;;14.00;99.90;;;;;;4977602;28;20037;-81
2022/10/28 01:46:13;;;;;;;6.65;4.10;;;14.00;99.90;;;;;;4965039;28;20026;-80
2022/10/28 01:48:54;;;;;;;7.32;4.20;;;14.00;99.90;;;;;;4961371;28;20022;-80
2022/10/28 01:51:36;;;;;;;8.82;4.28;;;14.00;99.90;;;;;;4992205;28;20034;-80
2022/10/28 01:54:08;;;;;;;7.57;4.18;;;14.00;99.90;;;;;;4977112;28;20065;-80
2022/10/28 01:56:40;;;;;;;6.37;4.10;;;14.00;99.90;;;;;;4991208;28;20027;-80
2022/10/28 01:59:11;;;;;;;7.40;4.57;;;14.00;99.90;;;;;;4961425;28;20462;-80
2022/10/28 02:01:42;;;;;;;5.32;3.70;;;13.90;99.90;;;;;;4977432;28;20269;-80
2022/10/28 02:04:20;;;;;;;6.50;3.80;;;14.00;99.90;;;;;;4977449;28;20022;-80
2022/10/28 02:06:53;;;;;;;8.95;4.70;;;13.90;99.90;;;;;;4948689;28;20026;-80
2022/10/28 02:09:41;;;;;;;7.53;4.60;;;13.90;99.90;;;;;;4967070;28;20023;-81
2022/10/28 02:12:20;;;;;;;6.40;4.05;;;13.90;99.90;;;;;;4960895;28;20054;-80
2022/10/28 02:14:57;;;;;;;8.07;4.13;;;13.90;99.90;;;;;;4977470;28;20099;-80
2022/10/28 02:17:48;;;;;;;6.43;4.00;;;13.90;99.90;;;;;;4973602;28;20095;-80
2022/10/28 02:20:39;;;;;;;7.43;4.50;;;13.90;99.90;;;;;;4962075;28;20042;-80
2022/10/28 02:23:19;;;;;;;5.90;4.18;;;13.80;99.90;;;;;;4960913;28;20034;-81
2022/10/28 02:25:48;;;;;;;8.40;4.30;;;13.80;99.90;;;;;;4994581;28;20105;-80
2022/10/28 02:28:35;;;;;;;7.05;4.57;;;13.80;99.90;;;;;;4985471;28;20030;-80
2022/10/28 02:31:23;;;;;;;7.68;4.47;;;13.80;99.90;;;;;;4964044;28;20023;-80
2022/10/28 02:33:54;;;;;;;7.22;4.25;;;13.80;99.90;;;;;;4978984;28;20027;-79
2022/10/28 02:36:26;;;;;;;8.05;4.53;;;13.80;99.90;;;;;;4977180;28;20514;-80
2022/10/28 02:38:55;;;;;;;10.00;5.22;;;13.70;99.90;;;;;;4977186;28;20068;-79
2022/10/28 02:41:52;;;;;;;8.85;4.97;;;13.70;99.90;;;;;;4976853;28;20027;-79
2022/10/28 02:44:31;;;;;;;7.95;4.40;;;13.70;99.90;;;;;;4977604;28;20027;-80
2022/10/28 02:47:00;;;;;;;7.90;5.45;;;13.70;99.90;;;;;;4998560;28;20034;-79
2022/10/28 02:49:30;;;;;;;7.55;4.53;;;13.70;99.90;;;;;;4983257;28;20015;-80
2022/10/28 02:52:05;;;;;;;6.28;4.68;;;13.70;99.90;;;;;;5002572;28;20046;-79
2022/10/28 02:55:03;;;;;;;5.68;4.28;;;13.70;99.90;;;;;;4969938;28;20104;-80
2022/10/28 02:57:39;;;;;;;8.45;4.63;;;13.70;99.90;;;;;;4993921;28;20126;-79
2022/10/28 03:00:08;;;;;;;6.65;4.65;;;13.70;99.90;;;;;;4994063;28;20026;-79
2022/10/28 03:02:34;;;;;;;8.38;4.88;;;13.70;99.90;;;;;;4996895;28;20037;-79
2022/10/28 03:05:03;;;;;;;6.35;4.28;;;13.70;99.90;;;;;;4996972;28;20022;-79
2022/10/28 03:07:29;;;;;;;8.55;4.68;;;13.70;99.90;;;;;;5014016;28;20030;-79
2022/10/28 03:09:55;;;;;;;8.13;4.90;;;13.70;99.90;;;;;;4994921;28;20073;-78
2022/10/28 03:12:21;;;;;;;8.43;4.57;;;13.70;99.90;;;;;;4977553;28;20101;-80
2022/10/28 03:14:46;;;;;;;9.00;4.45;;;13.70;99.90;;;;;;4977169;28;20459;-79
2022/10/28 03:17:12;;;;;;;6.22;4.47;;;13.70;99.90;;;;;;5011763;28;20022;-80
2022/10/28 03:19:38;;;;;;;7.75;4.30;;;13.70;99.90;;;;;;4979615;28;20041;-80
2022/10/28 03:22:04;;;;;;;8.90;4.63;;;13.70;99.90;;;;;;4978620;28;20025;-79
2022/10/28 03:24:29;;;;;;;7.22;4.85;;;13.70;99.90;;;;;;4976532;28;20041;-80
2022/10/28 03:26:55;;;;;;;5.97;4.68;;;13.60;99.90;;;;;;4976339;28;20033;-80
2022/10/28 03:29:21;;;;;;;8.35;4.85;;;13.60;99.90;;;;;;4976327;28;20083;-79
2022/10/28 03:31:47;;;;;;;8.93;4.97;;;13.60;99.90;;;;;;4976496;28;20018;-80
2022/10/28 03:34:12;;;;;;;7.47;4.07;;;13.50;99.90;;;;;;4993893;28;20038;-79
2022/10/28 03:36:38;;;;;;;6.60;4.75;;;13.50;99.90;;;;;;4976384;28;20027;-79
2022/10/28 03:39:04;;;;;;;6.40;4.60;;;13.50;99.90;;;;;;4975530;28;20089;-81
2022/10/28 03:41:34;;;;;;;9.27;5.47;;;13.50;99.90;;;;;;4993564;28;20467;-80
2022/10/28 03:44:02;;;;;;;5.82;4.18;;;13.50;99.90;;;;;;4976174;28;20029;-80
2022/10/28 03:46:33;;;;;;;6.68;4.57;;;13.50;99.90;;;;;;4976324;28;20130;-80
2022/10/28 03:49:05;;;;;;;6.43;4.60;;;13.40;99.90;;;;;;4976252;28;20027;-81
2022/10/28 03:51:35;;;;;;;6.88;4.40;;;13.40;99.90;;;;;;4975969;28;20061;-80
2022/10/28 03:54:01;;;;;;;5.70;4.22;;;13.40;99.90;;;;;;4976200;28;20050;-81
2022/10/28 03:56:27;;;;;;;7.95;4.00;;;13.40;99.90;;;;;;4983103;28;20026;-80
2022/10/28 03:58:52;;;;;;;6.10;4.50;;;13.40;99.90;;;;;;4980107;28;20106;-80
2022/10/28 04:01:18;;;;;;;6.18;4.30;;;13.40;99.90;;;;;;4979827;28;20022;-80
2022/10/28 04:03:45;;;;;;;6.68;4.50;;;13.30;99.90;;;;;;4980208;28;20113;-80
2022/10/28 04:06:11;;;;;;;6.50;3.88;;;13.30;99.90;;;;;;4980262;28;20035;-79
2022/10/28 04:08:37;;;;;;;8.57;5.03;;;13.30;99.90;;;;;;4979804;28;20032;-80
2022/10/28 04:11:03;;;;;;;6.50;4.43;;;13.30;99.90;;;;;;4979991;28;20482;-79
2022/10/28 04:13:31;;;;;;;7.15;4.65;;;13.30;99.90;;;;;;4979617;28;20041;-80
2022/10/28 04:16:00;;;;;;;8.63;4.75;;;13.30;99.90;;;;;;4979769;28;20031;-80
2022/10/28 04:18:26;;;;;;;5.43;3.85;;;13.30;99.90;;;;;;4997127;28;20061;-80
2022/10/28 04:20:52;;;;;;;6.43;4.30;;;13.20;99.90;;;;;;4979281;28;20125;-80
2022/10/28 04:23:18;;;;;;;5.55;3.90;;;13.30;99.90;;;;;;4979686;28;20038;-80
2022/10/28 04:25:44;;;;;;;6.05;4.30;;;13.20;99.90;;;;;;4979204;28;20028;-80
2022/10/28 04:28:09;;;;;;;7.38;4.05;;;13.20;99.90;;;;;;4979907;28;20050;-80
2022/10/28 04:30:35;;;;;;;6.45;4.47;;;13.20;99.90;;;;;;4979578;28;20077;-81
2022/10/28 04:33:01;;;;;;;7.80;4.05;;;13.20;99.90;;;;;;4979143;28;20073;-80
2022/10/28 04:35:26;;;;;;;9.02;4.55;;;13.20;99.90;;;;;;4981367;28;20363;-79
2022/10/28 04:37:52;;;;;;;6.40;4.20;;;13.10;99.90;;;;;;5020212;28;20078;-81
2022/10/28 04:40:18;;;;;;;6.03;4.15;;;13.20;99.90;;;;;;5002059;28;20074;-80
2022/10/28 04:42:55;;;;;;;6.88;4.38;;;13.10;99.90;;;;;;4996307;28;20034;-80
2022/10/28 04:45:23;;;;;;;6.82;3.97;;;13.10;99.90;;;;;;4985685;28;20022;-79
2022/10/28 04:47:51;;;;;;;6.80;4.18;;;13.10;99.90;;;;;;4979942;28;20102;-79
2022/10/28 04:50:17;;;;;;;9.98;4.38;;;13.00;99.90;;;;;;4980034;28;20517;-78
2022/10/28 04:52:43;;;;;;;8.75;4.30;;;13.00;99.90;;;;;;4979609;28;20030;-78
2022/10/28 04:55:08;;;;;;;5.82;3.92;;;13.00;99.90;;;;;;4979104;28;20507;-79
2022/10/28 04:57:34;;;;;;;5.90;4.32;;;12.90;99.90;;;;;;4997054;28;20034;-80
2022/10/28 05:00:00;;;;;;;7.03;4.18;;;13.00;99.90;;;;;;4979384;28;20105;-80
2022/10/28 05:02:26;;;;;;;7.32;4.40;;;12.90;99.90;;;;;;4996659;28;20038;-80
2022/10/28 05:04:51;;;;;;;7.95;4.97;;;12.90;99.90;;;;;;4978675;28;20109;-80
2022/10/28 05:07:18;;;;;;;6.97;4.20;;;12.90;99.90;;;;;;4978311;28;20492;-80
2022/10/28 05:09:47;;;;;;;8.00;4.32;;;12.90;99.90;;;;;;4978363;28;20026;-81
2022/10/28 05:12:22;;;;;;;6.18;3.75;;;12.90;99.90;;;;;;4962049;28;20023;-80
2022/10/28 05:14:47;;;;;;;6.32;3.92;;;12.80;99.90;;;;;;4978419;28;20025;-80
2022/10/28 05:17:13;;;;;;;6.05;3.97;;;12.80;99.90;;;;;;4979603;28;20427;-80
2022/10/28 05:19:39;;;;;;;6.80;4.07;;;12.80;99.90;;;;;;4984540;28;20038;-80
2022/10/28 05:22:10;;;;;;;5.38;4.22;;;12.70;99.90;;;;;;4994290;28;20446;-80
2022/10/28 05:24:36;;;;;;;6.97;4.03;;;12.80;99.90;;;;;;4976555;28;20037;-80
2022/10/28 05:27:02;;;;;;;8.20;3.85;;;12.70;99.90;;;;;;4994573;28;20027;-81
2022/10/28 05:29:27;;;;;;;6.32;3.95;;;12.70;99.90;;;;;;4976912;28;20487;-80
2022/10/28 05:31:53;;;;;;;5.82;4.00;;;12.70;99.90;;;;;;4976624;28;20022;-80
2022/10/28 05:34:19;;;;;;;7.32;4.45;;;12.70;99.90;;;;;;4981543;28;20033;-80
2022/10/28 05:36:45;;;;;;;5.45;3.92;;;12.70;99.90;;;;;;4980823;28;20031;-80
2022/10/28 05:39:12;;;;;;;6.53;3.97;;;12.60;99.90;;;;;;4996865;28;20030;-80
2022/10/28 05:41:38;;;;;;;5.18;3.40;;;12.60;99.90;;;;;;4990019;28;20064;-79
2022/10/28 05:44:05;;;;;;;6.35;3.92;;;12.70;99.90;;;;;;4977037;28;20422;-80
2022/10/28 05:46:30;;;;;;;6.57;4.20;;;12.60;99.90;;;;;;4978892;28;20495;-80
2022/10/28 05:48:58;;;;;;;6.57;4.15;;;12.60;99.90;;;;;;4988210;28;20022;-80
2022/10/28 05:51:24;;;;;;;9.13;4.63;;;12.60;99.90;;;;;;4987978;28;20478;-80
2022/10/28 05:53:51;;;;;;;7.82;4.40;;;12.60;99.90;;;;;;4981676;28;20062;-80
2022/10/28 05:56:17;;;;;;;8.65;4.13;;;12.60;99.90;;;;;;4984885;28;20652;-80
2022/10/28 05:58:46;;;;;;;6.40;4.20;;;12.60;99.90;;;;;;4978500;28;20122;-82
2022/10/28 06:01:12;;;;;;;7.07;4.30;;;12.60;99.90;;;;;;4988317;28;20080;-80
2022/10/28 06:03:37;;;;;;;7.22;4.20;;;12.60;99.90;;;;;;4982092;28;20120;-80
2022/10/28 06:06:04;;;;;;;14.13;3.80;;;12.60;99.90;;;;;;4990757;28;20112;-80
2022/10/28 06:08:29;;;;;;;6.32;3.80;;;12.60;99.90;;;;;;4960324;28;20038;-80
2022/10/28 06:10:55;;;;;;;5.95;3.78;;;12.60;99.90;;;;;;4983025;28;20034;-80
2022/10/28 06:13:21;;;;;;;5.50;3.60;;;12.60;99.90;;;;;;4984968;28;20478;-80
2022/10/28 06:15:51;;;;;;;5.53;3.50;;;12.60;99.90;;;;;;4960382;28;20026;-80
2022/10/28 06:18:17;;;;;;;5.32;3.28;;;12.50;99.90;;;;;;4970648;28;20037;-80
2022/10/28 06:20:43;;;;;;;6.15;3.50;;;12.50;99.90;;;;;;4997305;28;20072;-80
2022/10/28 06:23:08;;;;;;;8.35;3.55;;;12.50;99.90;;;;;;4976467;28;20024;-80
2022/10/28 06:25:34;;;;;;;5.80;3.47;;;12.50;99.90;;;;;;4975996;28;20217;-80
2022/10/28 06:28:01;;;;;;;5.28;3.15;;;12.50;99.90;;;;;;4976489;28;20385;-79
2022/10/28 06:30:27;;;;;;;5.80;3.50;;;12.50;99.90;;;;;;4978290;28;20089;-80
2022/10/28 06:32:58;;;;;;;7.57;3.83;;;12.50;99.90;;;;;;4992963;28;20022;-80
2022/10/28 06:35:23;;;;;;;4.90;3.25;;;12.50;99.90;;;;;;4999170;28;20010;-80
2022/10/28 06:37:54;;;;;;;6.80;3.40;;;12.50;99.90;;;;;;5008820;28;20093;-80
2022/10/28 06:40:20;;;;;;;5.85;3.22;;;12.50;99.90;;;;;;4981193;28;20037;-81
2022/10/28 06:42:46;;;;;;;6.22;3.50;;;12.50;99.90;;;;;;4996113;28;20041;-80
2022/10/28 06:45:11;;;;;;;5.10;3.05;;;12.50;99.90;;;;;;4996154;28;20105;-80
2022/10/28 06:47:37;;;;;;;6.20;3.08;;;12.60;99.90;;;;;;4996199;28;20029;-81
2022/10/28 06:50:03;;;;;;;7.65;3.30;;;12.70;99.90;;;;;;4976899;28;20109;-81
2022/10/28 06:52:28;;;;;;;5.53;3.15;;;12.80;99.90;;;;;;4994184;28;20033;-81
2022/10/28 06:54:54;;;;;;;7.90;3.63;;;13.00;99.90;;;;;;4978229;28;20045;-81
2022/10/28 06:57:20;;;;;;;6.13;3.22;;;13.20;99.90;;;;;;4993900;28;20030;-81
2022/10/28 06:59:45;;;;;;;7.43;3.75;;;13.40;99.90;;;;;;4978625;28;20061;-81
2022/10/28 07:02:11;;;;;;;7.75;3.70;;;13.70;99.90;;;;;;4987274;28;20027;-80
2022/10/28 07:04:37;;;;;;;9.82;3.75;;;13.90;99.90;;;;;;4971511;28;20031;-81
2022/10/28 07:07:03;;;;;;;9.70;4.32;;;14.20;99.90;;;;;;4973331;28;20025;-81
2022/10/28 07:09:32;;;;;;;11.63;4.90;;;14.40;99.90;;;;;;4975515;28;20034;-81
2022/10/28 07:11:59;;;;;;;8.32;4.63;;;14.60;99.90;;;;;;4961085;28;20030;-81
2022/10/28 07:14:25;;;;;;;10.05;4.47;;;14.80;99.90;;;;;;4975524;28;20498;-81
2022/10/28 07:16:52;;;;;;;8.20;3.97;;;15.00;99.90;;;;;;4996167;28;20034;-81
2022/10/28 07:19:18;;;;;;;8.32;4.07;;;15.10;99.90;;;;;;4975084;28;20033;-81
2022/10/28 07:21:46;;;;;;;7.70;3.80;;;15.20;99.90;;;;;;4955864;28;20375;-81
2022/10/28 07:24:13;;;;;;;7.25;4.00;;;15.30;99.90;;;;;;4994349;28;20023;-81
2022/10/28 07:26:38;;;;;;;10.57;4.60;;;15.40;99.90;;;;;;4975366;28;20025;-81
2022/10/28 07:29:04;;;;;;;6.00;4.18;;;15.50;99.90;;;;;;4976630;28;20030;-81
2022/10/28 07:31:35;;;;;;;9.98;4.57;;;15.60;99.90;;;;;;4966815;28;20089;-81
2022/10/28 07:34:01;;;;;;;7.78;5.03;;;15.70;99.90;;;;;;4978554;28;20037;-81
2022/10/28 07:36:30;;;;;;;9.25;4.53;;;15.80;99.90;;;;;;4979262;28;20133;-82
2022/10/28 07:39:02;;;;;;;11.13;4.93;;;15.90;99.90;;;;;;4978972;28;20054;-81
2022/10/28 07:41:31;;;;;;;12.63;5.10;;;16.10;99.90;;;;;;4996003;28;20050;-81
2022/10/28 07:44:06;;;;;;;11.00;4.70;;;16.10;99.90;;;;;;4980973;28;20034;-81
2022/10/28 07:46:35;;;;;;;10.93;4.88;;;16.20;99.90;;;;;;4978690;28;20406;-81
2022/10/28 07:49:06;;;;;;;8.52;4.28;;;16.30;99.90;;;;;;4979608;28;20058;-80
2022/10/28 07:51:37;;;;;;;7.10;4.22;;;16.30;99.90;;;;;;4996228;28;20042;-80
2022/10/28 07:54:03;;;;;;;9.75;4.22;;;16.40;99.90;;;;;;4982560;28;20046;-80
2022/10/28 07:56:30;;;;;;;11.32;5.07;;;16.40;99.90;;;;;;4975985;28;20080;-80
2022/10/28 07:59:02;;;;;;;9.40;4.63;;;16.50;99.90;;;;;;4973625;28;20586;-79
2022/10/28 08:01:33;;;;;;;8.93;4.40;;;16.60;99.90;;;;;;4991596;28;20042;-81
2022/10/28 08:04:05;;;;;;;9.38;4.40;;;16.70;99.90;;;;;;4959566;28;20034;-80
2022/10/28 08:06:34;;;;;;;8.32;4.78;;;16.80;99.90;;;;;;4977021;28;20375;-81
2022/10/28 08:09:00;;;;;;;9.43;4.70;;;16.90;99.90;;;;;;4961163;28;20475;-80
2022/10/28 08:11:29;;;;;;;10.27;5.05;;;17.00;99.90;;;;;;4974862;28;20053;-81
2022/10/28 08:13:56;;;;;;;8.52;4.65;;;17.10;99.90;;;;;;4983127;28;20370;-81
2022/10/28 08:16:27;;;;;;;8.77;4.53;;;17.30;99.90;;;;;;4980058;28;20046;-81
2022/10/28 08:18:54;;;;;;;10.20;4.78;;;17.40;99.90;;;;;;4980554;28;20084;-81
2022/10/28 08:21:20;;;;;;;7.97;4.30;;;17.60;99.90;;;;;;4996824;28;20018;-81
2022/10/28 08:23:46;;;;;;;7.90;4.22;;;17.70;99.90;;;;;;4981805;28;20030;-81
2022/10/28 08:26:14;;;;;;;11.15;4.30;;;17.80;99.90;;;;;;4979276;28;20044;-81
2022/10/28 08:28:44;;;;;;;7.35;4.53;;;17.90;99.90;;;;;;4985193;28;20018;-80
2022/10/28 08:31:13;;;;;;;8.38;3.90;;;18.00;99.90;;;;;;5020134;28;20019;-81
2022/10/28 08:33:44;;;;;;;10.00;4.90;;;18.00;99.90;;;;;;5004608;28;20033;-82
2022/10/28 08:36:15;;;;;;;10.75;4.55;;;18.00;99.90;;;;;;4999077;28;20503;-81
2022/10/28 08:38:45;;;;;;;7.25;3.90;;;18.10;99.90;;;;;;4987520;28;20421;-80
2022/10/28 08:41:28;;;;;;;6.10;3.42;;;18.10;99.90;;;;;;4970553;28;20042;-80
2022/10/28 08:44:14;;;;;;;;;;;18.20;99.90;;;;;;4984231;28;20072;-80
2022/10/28 08:47:05;;;;;;;9.35;4.60;;;18.10;99.90;;;;;;4991676;28;19909;-80
2022/10/28 08:49:35;;;;;;;10.93;4.65;;;18.30;99.90;;;;;;4971534;28;20030;-80
2022/10/28 08:52:29;;;;;;;9.38;3.97;;;18.50;99.90;;;;;;4976338;28;20026;-81
2022/10/28 08:55:05;;;;;;;11.30;4.57;;;18.70;99.90;;;;;;4971900;28;20058;-80
2022/10/28 08:57:56;;;;;;;12.57;5.20;;;18.80;99.90;;;;;;4994285;28;20467;-80
2022/10/28 09:00:33;;;;;;;10.32;4.07;;;19.10;99.90;;;;;;4977297;28;20426;-81
2022/10/28 09:03:10;;;;;;;9.00;4.95;;;19.70;99.90;;;;;;4988312;28;20035;-81
2022/10/28 09:05:40;;;;;;;8.05;4.10;;;20.00;99.90;;;;;;4978419;28;20512;-81
2022/10/28 09:08:29;;;;;;;7.75;4.07;;;20.20;99.90;;;;;;4977845;28;20029;-81
2022/10/28 09:11:29;;;;;;;7.28;4.80;;;20.30;99.90;;;;;;4996076;28;20026;-81
2022/10/28 09:13:55;;;;;;;9.23;4.20;;;20.90;99.90;;;;;;4999350;28;20478;-79
2022/10/28 09:16:33;;;;;;;9.02;3.70;;;21.70;99.90;;;;;;4979922;28;20048;-80
2022/10/28 09:19:13;;;;;;;8.82;4.50;;;22.80;99.90;;;;;;4976760;28;20026;-81
2022/10/28 09:22:24;;;;;;;9.93;4.10;;;23.70;99.90;;;;;;4979528;28;20481;-82
2022/10/28 09:24:54;;;;;;;7.28;3.70;;;24.70;99.90;;;;;;4972109;28;20041;-79
2022/10/28 09:27:46;;;;;;;7.50;3.63;;;25.40;99.90;;;;;;4977255;28;20010;-81
2022/10/28 09:30:23;;;;;;;7.15;2.97;;;26.00;99.90;;;;;;4953019;28;20037;-80
2022/10/28 09:33:17;;;;;;;9.35;3.67;;;26.20;99.90;;;;;;4972711;28;20043;-80
2022/10/28 09:35:44;;;;;;;;;;;26.20;99.90;;;;;;4976079;28;20033;-81
2022/10/28 09:38:31;;;;;;;8.98;3.42;;;25.70;99.90;;;;;;4989788;28;19952;-80
2022/10/28 09:41:15;;;;;;;8.00;3.78;;;25.20;99.90;;;;;;4968657;28;20486;-80
2022/10/28 09:43:53;;;;;;;6.47;3.65;;;24.80;99.90;;;;;;4957619;28;20496;-80
2022/10/28 09:46:22;;;;;;;6.72;3.20;;;24.80;99.90;;;;;;4979464;28;20015;-79
2022/10/28 09:48:54;;;;;;;5.35;3.17;;;24.60;99.90;;;;;;4975329;28;20384;-80
2022/10/28 09:51:42;;;;;;;5.35;2.92;;;24.60;99.90;;;;;;4961593;28;20034;-80
2022/10/28 09:54:10;;;;;;;7.05;3.13;;;24.70;99.90;;;;;;4978697;28;20061;-80
2022/10/28 09:56:39;;;;;;;8.85;3.20;;;24.90;99.90;;;;;;4980185;28;20506;-80
2022/10/28 09:59:06;;;;;;;7.50;3.03;;;25.00;99.90;;;;;;4995279;28;20030;-80
2022/10/28 10:01:38;;;;;;;8.30;3.40;;;24.80;99.90;;;;;;4962543;28;20036;-80
2022/10/28 10:04:25;;;;;;;7.77;3.47;;;24.20;99.90;;;;;;4972199;28;20027;-81
2022/10/28 10:07:07;;;;;;;9.23;3.38;;;23.50;99.90;;;;;;4974771;28;20070;-79
2022/10/28 10:09:35;;;;;;;6.68;3.78;;;22.90;99.90;;;;;;4969458;28;20027;-80
2022/10/28 10:12:11;;;;;;;7.00;4.30;;;22.70;99.90;;;;;;4972272;28;20030;-80
2022/10/28 10:14:48;;;;;;;6.97;3.83;;;23.10;99.90;;;;;;4974783;28;20034;-79
2022/10/28 10:17:21;;;;;;;8.57;3.95;;;23.70;99.90;;;;;;4991111;28;20027;-80
2022/10/28 10:20:10;;;;;;;9.48;3.97;;;23.90;99.90;;;;;;4976203;28;20462;-79
2022/10/28 10:22:38;;;;;;;8.13;3.67;;;23.70;99.90;;;;;;4977653;28;20046;-80
2022/10/28 10:25:30;;;;;;;7.85;3.10;;;23.80;99.90;;;;;;4974902;28;20041;-80
2022/10/28 10:28:00;;;;;;;6.28;2.78;;;24.00;99.90;;;;;;4994243;28;20018;-80
2022/10/28 10:31:06;;;;;;;6.28;2.70;;;24.50;99.90;;;;;;4998326;28;20071;-80
2022/10/28 10:33:34;;;;;;;6.97;3.00;;;25.20;99.90;;;;;;4983660;28;20074;-79
2022/10/28 10:36:13;;;;;;;7.55;3.00;;;25.50;99.90;;;;;;4979675;28;20053;-80
2022/10/28 10:38:48;;;;;;;8.20;3.47;;;25.70;99.90;;;;;;4977631;28;20462;-79
2022/10/28 10:41:41;;;;;;;11.00;3.38;;;25.50;99.90;;;;;;4977546;28;20029;-79
2022/10/28 10:44:34;;;;;;;7.88;3.30;;;25.10;99.90;;;;;;4975411;28;20038;-80
2022/10/28 10:47:02;;;;;;;8.15;3.30;;;25.10;99.90;;;;;;4965822;28;20026;-80
2022/10/28 10:49:29;;;;;;;7.97;3.30;;;25.30;99.90;;;;;;4988703;28;20126;-80
2022/10/28 10:51:58;;;;;;;7.22;2.50;;;25.60;99.90;;;;;;4976256;28;20508;-80
2022/10/28 10:54:29;;;;;;;6.53;2.63;;;25.70;99.90;;;;;;4959832;28;20073;-80
2022/10/28 10:57:21;;;;;;;7.95;2.92;;;25.50;99.90;;;;;;4967193;28;20037;-80
2022/10/28 10:59:50;;;;;;;7.15;2.55;;;25.50;99.90;;;;;;4978055;28;20018;-80
2022/10/28 11:02:30;;;;;;;7.43;3.15;;;25.90;99.90;;;;;;4991957;28;20101;-81
2022/10/28 11:05:06;;;;;;;7.57;2.95;;;26.10;99.90;;;;;;4992632;28;20027;-80
2022/10/28 11:07:32;;;;;;;8.32;3.40;;;26.20;99.90;;;;;;4970870;28;20028;-81
2022/10/28 11:09:59;;;;;;;8.82;3.30;;;25.90;99.90;;;;;;4976797;28;20058;-81
2022/10/28 11:12:37;;;;;;;6.35;2.83;;;25.50;99.90;;;;;;4974508;28;20038;-81
2022/10/28 11:15:23;;;;;;;8.25;3.00;;;25.40;99.90;;;;;;4978787;28;20054;-81
2022/10/28 11:18:19;;;;;;;9.40;2.72;;;25.50;99.90;;;;;;4978414;28;20020;-81
2022/10/28 11:21:06;;;;;;;7.32;2.67;;;25.80;99.90;;;;;;4960390;28;20118;-82
2022/10/28 11:24:18;;;;;;;6.28;3.15;;;25.80;99.90;;;;;;4995204;28;20023;-81
2022/10/28 11:27:09;;;;;;;9.07;3.63;;;25.30;99.90;;;;;;4991841;28;20022;-81
2022/10/28 11:29:36;;;;;;;5.90;2.85;;;24.70;99.90;;;;;;4995979;28;20089;-81
2022/10/28 11:32:31;;;;;;;7.82;3.10;;;24.40;99.90;;;;;;4978245;28;20496;-80
2022/10/28 11:34:57;;;;;;;10.00;3.28;;;24.40;99.90;;;;;;4900849;29;20048;-81
2022/10/28 11:37:44;;;;;;;8.25;2.50;;;24.40;99.90;;;;;;4901022;29;20044;-81
2022/10/28 11:41:02;;;;;;;8.73;2.85;;;24.50;99.90;;;;;;4974771;28;20041;-81
2022/10/28 11:44:25;;;;;;;;;;;;;;;;;;;;;
2022/10/28 11:47:01;;;;;;;7.60;2.67;;;25.20;99.90;;;;;;4872066;29;20051;-81
2022/10/28 11:49:36;;;;;;;10.45;3.53;;;25.10;99.90;;;;;;4963490;28;20022;-81
2022/10/28 11:52:20;;;;;;;6.82;2.83;;;24.90;99.90;;;;;;4977716;28;20113;-81
2022/10/28 11:55:01;;;;;;;6.68;2.85;;;24.80;99.90;;;;;;4961266;28;20166;-81
2022/10/28 11:57:36;;;;;;;6.18;2.63;;;24.90;99.90;;;;;;4969629;28;20080;-82
2022/10/28 12:00:23;;;;;;;5.90;2.63;;;25.10;99.90;;;;;;4975879;28;20039;-81
2022/10/28 12:03:27;;;;;;;5.63;2.55;;;25.20;99.90;;;;;;4972198;28;20022;-82
2022/10/28 12:05:58;;;;;;;9.15;3.47;;;25.50;99.90;;;;;;4969706;28;20695;-81
2022/10/28 12:08:36;;;;;;;6.55;2.65;;;25.40;99.90;;;;;;4984037;28;20119;-80
2022/10/28 12:11:25;;;;;;;5.22;2.70;;;25.20;99.90;;;;;;4981855;28;20034;-80
2022/10/28 12:13:53;;;;;;;7.43;2.70;;;25.20;99.90;;;;;;4975338;28;20045;-81
2022/10/28 12:16:57;;;;;;;7.65;2.70;;;25.00;99.90;;;;;;4967429;28;20120;-79
2022/10/28 12:19:24;;;;;;;;;;;25.20;99.90;;;;;;4974842;28;20375;-80
2022/10/28 12:21:57;;;;;;;9.77;2.50;;;25.20;99.90;;;;;;4973513;28;19917;-81
2022/10/28 12:24:24;;;;;;;9.02;2.90;;;25.30;99.90;;;;;;4987524;28;20022;-83
2022/10/28 12:26:55;;;;;;;5.45;2.53;;;25.30;99.90;;;;;;5012802;28;20090;-81
2022/10/28 12:29:32;;;;;;;6.80;2.53;;;25.20;99.90;;;;;;4983449;28;20038;-81
2022/10/28 12:32:07;;;;;;;6.18;2.35;;;25.10;99.90;;;;;;4980892;28;20113;-82
2022/10/28 12:34:44;;;;;;;7.03;2.83;;;25.10;99.90;;;;;;4974308;28;20482;-81
2022/10/28 12:37:23;;;;;;;5.38;2.30;;;25.20;99.90;;;;;;4974197;28;20035;-81
2022/10/28 12:40:20;;;;;;;6.50;2.08;;;25.30;99.90;;;;;;4973247;28;20022;-81
2022/10/28 12:43:06;;;;;;;5.63;2.10;;;25.30;99.90;;;;;;4972390;28;20053;-80
2022/10/28 12:45:32;;;;;;;9.05;2.90;;;25.40;99.90;;;;;;4988394;28;20049;-81
2022/10/28 12:48:20;;;;;;;8.35;3.22;;;25.30;99.90;;;;;;4964868;28;20030;-81
2022/10/28 12:51:11;;;;;;;7.63;2.67;;;25.20;99.90;;;;;;4962064;28;20015;-81
2022/10/28 12:53:55;;;;;;;5.88;2.88;;;25.00;99.90;;;;;;4980631;28;20113;-81
2022/10/28 12:56:30;;;;;;;6.80;2.70;;;24.80;99.90;;;;;;4972019;28;20035;-81
2022/10/28 12:59:17;;;;;;;7.97;2.45;;;24.70;99.90;;;;;;4983589;28;20022;-81
2022/10/28 13:01:46;;;;;;;7.85;3.40;;;24.50;99.90;;;;;;4981556;28;20043;-81
2022/10/28 13:04:13;;;;;;;10.25;3.70;;;24.50;99.90;;;;;;4993063;28;20034;-81
2022/10/28 13:07:16;;;;;;;9.40;3.00;;;24.70;99.90;;;;;;4977001;28;20036;-81
2022/10/28 13:09:59;;;;;;;8.15;2.92;;;24.80;99.90;;;;;;4989887;28;20030;-81
2022/10/28 13:12:44;;;;;;;8.35;2.78;;;24.70;99.90;;;;;;4975922;28;20030;-80
2022/10/28 13:15:16;;;;;;;7.75;2.55;;;24.50;99.90;;;;;;4979367;28;20101;-80
2022/10/28 13:18:23;;;;;;;6.57;2.40;;;24.20;99.90;;;;;;4979217;28;20049;-80
2022/10/28 13:21:22;;;;;;;6.72;2.72;;;24.00;99.90;;;;;;4958403;28;20049;-80
2022/10/28 13:24:29;;;;;;;6.20;2.47;;;23.80;99.90;;;;;;4992079;28;20034;-79